sensor_id;sensor_type;location;lat;lon;timestamp;pressure;altitude;pressure_sealevel;temperature;humidity
76374;BME280;65197;50.164;8.012;2023-06-22T00:00:55;95734.53;;;18.71;98.76
76374;BME280;65197;50.164;8.012;2023-06-22T00:03:22;95741.09;;;18.75;98.30
76374;BME280;65197;50.164;8.012;2023-06-22T00:05:49;95751.91;;;18.80;97.62
76374;BME280;65197;50.164;8.012;2023-06-22T00:08:14;95748.41;;;18.81;97.72
76374;BME280;65197;50.164;8.012;2023-06-22T00:10:40;95747.19;;;18.86;97.59
76374;BME280;65197;50.164;8.012;2023-06-22T00:13:07;95755.44;;;18.91;99.51
76374;BME280;65197;50.164;8.012;2023-06-22T00:15:33;95769.63;;;18.96;100.00
76374;BME280;65197;50.164;8.012;2023-06-22T00:17:59;95769.28;;;18.90;100.00
76374;BME280;65197;50.164;8.012;2023-06-22T00:20:28;95760.00;;;18.65;100.00
76374;BME280;65197;50.164;8.012;2023-06-22T00:22:57;95753.31;;;18.40;100.00
76374;BME280;65197;50.164;8.012;2023-06-22T00:25:23;95763.38;;;18.31;100.00
76374;BME280;65197;50.164;8.012;2023-06-22T00:27:48;95753.63;;;18.24;100.00
76374;BME280;65197;50.164;8.012;2023-06-22T00:30:17;95762.16;;;18.13;100.00
76374;BME280;65197;50.164;8.012;2023-06-22T00:32:44;95761.78;;;17.95;100.00
76374;BME280;65197;50.164;8.012;2023-06-22T00:35:10;95790.16;;;17.95;100.00
76374;BME280;65197;50.164;8.012;2023-06-22T00:37:36;95776.63;;;17.80;100.00
76374;BME280;65197;50.164;8.012;2023-06-22T00:40:02;95791.63;;;17.75;100.00
76374;BME280;65197;50.164;8.012;2023-06-22T00:42:29;95790.16;;;17.71;100.00
76374;BME280;65197;50.164;8.012;2023-06-22T00:44:54;95789.88;;;17.63;100.00
76374;BME280;65197;50.164;8.012;2023-06-22T00:47:19;95802.97;;;17.60;100.00
76374;BME280;65197;50.164;8.012;2023-06-22T00:49:47;95810.84;;;17.59;100.00
76374;BME280;65197;50.164;8.012;2023-06-22T00:52:13;95807.91;;;17.52;100.00
76374;BME280;65197;50.164;8.012;2023-06-22T00:54:42;95780.72;;;17.35;100.00
76374;BME280;65197;50.164;8.012;2023-06-22T00:57:13;95806.34;;;17.49;100.00
76374;BME280;65197;50.164;8.012;2023-06-22T00:59:42;95787.81;;;17.44;100.00
76374;BME280;65197;50.164;8.012;2023-06-22T01:02:08;95797.28;;;17.44;100.00
76374;BME280;65197;50.164;8.012;2023-06-22T01:04:35;95795.03;;;17.39;100.00
76374;BME280;65197;50.164;8.012;2023-06-22T01:07:17;95786.56;;;17.37;100.00
76374;BME280;65197;50.164;8.012;2023-06-22T01:09:51;95784.28;;;17.21;100.00
76374;BME280;65197;50.164;8.012;2023-06-22T01:12:20;95761.13;;;16.96;100.00
76374;BME280;65197;50.164;8.012;2023-06-22T01:15:18;95748.78;;;17.01;100.00
76374;BME280;65197;50.164;8.012;2023-06-22T01:17:48;95740.94;;;17.02;100.00
76374;BME280;65197;50.164;8.012;2023-06-22T01:20:15;95725.97;;;17.08;100.00
76374;BME280;65197;50.164;8.012;2023-06-22T01:23:14;95709.03;;;17.16;100.00
76374;BME280;65197;50.164;8.012;2023-06-22T01:25:57;95719.34;;;17.16;100.00
76374;BME280;65197;50.164;8.012;2023-06-22T01:28:46;95768.81;;;17.21;100.00
76374;BME280;65197;50.164;8.012;2023-06-22T01:31:15;95758.00;;;17.16;100.00
76374;BME280;65197;50.164;8.012;2023-06-22T01:33:43;95761.28;;;17.18;100.00
76374;BME280;65197;50.164;8.012;2023-06-22T01:36:09;95766.13;;;17.23;100.00
76374;BME280;65197;50.164;8.012;2023-06-22T01:38:37;95765.59;;;17.30;100.00
76374;BME280;65197;50.164;8.012;2023-06-22T01:41:02;95762.22;;;17.41;100.00
76374;BME280;65197;50.164;8.012;2023-06-22T01:43:29;95744.09;;;17.43;100.00
76374;BME280;65197;50.164;8.012;2023-06-22T01:45:56;95746.00;;;17.52;100.00
76374;BME280;65197;50.164;8.012;2023-06-22T01:48:22;95738.69;;;17.46;100.00
76374;BME280;65197;50.164;8.012;2023-06-22T01:50:48;95724.13;;;17.34;100.00
76374;BME280;65197;50.164;8.012;2023-06-22T01:53:13;95706.09;;;17.34;100.00
76374;BME280;65197;50.164;8.012;2023-06-22T01:55:39;95687.75;;;17.25;100.00
76374;BME280;65197;50.164;8.012;2023-06-22T01:58:04;95690.16;;;17.40;100.00
76374;BME280;65197;50.164;8.012;2023-06-22T02:00:33;95687.31;;;17.31;100.00
76374;BME280;65197;50.164;8.012;2023-06-22T02:03:16;95689.88;;;17.31;100.00
76374;BME280;65197;50.164;8.012;2023-06-22T02:05:56;95691.28;;;17.24;100.00
76374;BME280;65197;50.164;8.012;2023-06-22T02:08:26;95709.75;;;17.18;100.00
76374;BME280;65197;50.164;8.012;2023-06-22T02:10:54;95714.50;;;17.36;100.00
76374;BME280;65197;50.164;8.012;2023-06-22T02:13:21;95724.63;;;17.39;100.00
76374;BME280;65197;50.164;8.012;2023-06-22T02:15:47;95727.69;;;17.44;100.00
76374;BME280;65197;50.164;8.012;2023-06-22T02:18:13;95726.94;;;17.42;100.00
76374;BME280;65197;50.164;8.012;2023-06-22T02:20:39;95740.91;;;17.39;100.00
76374;BME280;65197;50.164;8.012;2023-06-22T02:23:06;95736.06;;;17.35;100.00
76374;BME280;65197;50.164;8.012;2023-06-22T02:25:32;95756.03;;;17.44;100.00
76374;BME280;65197;50.164;8.012;2023-06-22T02:27:58;95757.88;;;17.42;100.00
76374;BME280;65197;50.164;8.012;2023-06-22T02:30:23;95747.81;;;17.39;100.00
76374;BME280;65197;50.164;8.012;2023-06-22T02:32:49;95725.75;;;17.35;100.00
76374;BME280;65197;50.164;8.012;2023-06-22T02:35:14;95697.00;;;17.28;100.00
76374;BME280;65197;50.164;8.012;2023-06-22T02:37:40;95680.03;;;17.25;100.00
76374;BME280;65197;50.164;8.012;2023-06-22T02:40:09;95682.13;;;17.20;100.00
76374;BME280;65197;50.164;8.012;2023-06-22T02:42:36;95679.09;;;17.26;100.00
76374;BME280;65197;50.164;8.012;2023-06-22T02:45:02;95678.97;;;17.28;100.00
76374;BME280;65197;50.164;8.012;2023-06-22T02:47:27;95690.16;;;17.40;100.00
76374;BME280;65197;50.164;8.012;2023-06-22T02:49:52;95674.56;;;17.41;100.00
76374;BME280;65197;50.164;8.012;2023-06-22T02:52:18;95680.78;;;17.39;100.00
76374;BME280;65197;50.164;8.012;2023-06-22T02:54:43;95673.97;;;17.38;100.00
76374;BME280;65197;50.164;8.012;2023-06-22T02:57:11;95683.25;;;17.40;100.00
76374;BME280;65197;50.164;8.012;2023-06-22T02:59:41;95673.97;;;17.38;100.00
76374;BME280;65197;50.164;8.012;2023-06-22T03:02:08;95665.75;;;17.33;100.00
76374;BME280;65197;50.164;8.012;2023-06-22T03:04:35;95672.31;;;17.37;100.00
76374;BME280;65197;50.164;8.012;2023-06-22T03:07:00;95655.44;;;17.33;100.00
76374;BME280;65197;50.164;8.012;2023-06-22T03:09:30;95654.41;;;17.35;100.00
76374;BME280;65197;50.164;8.012;2023-06-22T03:11:55;95652.91;;;17.44;100.00
76374;BME280;65197;50.164;8.012;2023-06-22T03:14:21;95653.88;;;17.54;100.00
76374;BME280;65197;50.164;8.012;2023-06-22T03:16:46;95652.25;;;17.53;100.00
76374;BME280;65197;50.164;8.012;2023-06-22T03:19:12;95658.81;;;17.57;100.00
76374;BME280;65197;50.164;8.012;2023-06-22T03:21:38;95659.03;;;17.54;100.00
76374;BME280;65197;50.164;8.012;2023-06-22T03:24:04;95667.38;;;17.58;100.00
76374;BME280;65197;50.164;8.012;2023-06-22T03:26:30;95663.25;;;17.55;100.00
76374;BME280;65197;50.164;8.012;2023-06-22T03:28:55;95672.75;;;17.54;100.00
76374;BME280;65197;50.164;8.012;2023-06-22T03:31:21;95662.88;;;17.48;100.00
76374;BME280;65197;50.164;8.012;2023-06-22T03:33:47;95650.81;;;17.49;100.00
76374;BME280;65197;50.164;8.012;2023-06-22T03:36:14;95646.22;;;17.41;100.00
76374;BME280;65197;50.164;8.012;2023-06-22T03:38:41;95653.84;;;17.43;100.00
76374;BME280;65197;50.164;8.012;2023-06-22T03:41:06;95645.78;;;17.47;100.00
76374;BME280;65197;50.164;8.012;2023-06-22T03:43:32;95657.41;;;17.53;100.00
76374;BME280;65197;50.164;8.012;2023-06-22T03:45:58;95658.56;;;17.60;100.00
76374;BME280;65197;50.164;8.012;2023-06-22T03:48:23;95633.25;;;17.54;100.00
76374;BME280;65197;50.164;8.012;2023-06-22T03:50:48;95655.56;;;17.66;100.00
76374;BME280;65197;50.164;8.012;2023-06-22T03:53:14;95655.31;;;17.69;100.00
76374;BME280;65197;50.164;8.012;2023-06-22T03:55:48;95638.31;;;17.67;100.00
76374;BME280;65197;50.164;8.012;2023-06-22T03:58:14;95636.44;;;17.69;100.00
76374;BME280;65197;50.164;8.012;2023-06-22T04:00:39;95655.38;;;17.80;100.00
76374;BME280;65197;50.164;8.012;2023-06-22T04:03:05;95643.63;;;17.76;100.00
76374;BME280;65197;50.164;8.012;2023-06-22T04:05:32;95657.84;;;17.82;100.00
76374;BME280;65197;50.164;8.012;2023-06-22T04:07:58;95654.09;;;17.86;100.00
76374;BME280;65197;50.164;8.012;2023-06-22T04:10:23;95648.34;;;17.83;100.00
76374;BME280;65197;50.164;8.012;2023-06-22T04:12:48;95651.63;;;17.85;100.00
76374;BME280;65197;50.164;8.012;2023-06-22T04:15:14;95654.09;;;17.86;100.00
76374;BME280;65197;50.164;8.012;2023-06-22T04:17:39;95669.44;;;17.88;100.00
76374;BME280;65197;50.164;8.012;2023-06-22T04:20:05;95663.81;;;17.83;100.00
76374;BME280;65197;50.164;8.012;2023-06-22T04:22:31;95662.81;;;17.72;100.00
76374;BME280;65197;50.164;8.012;2023-06-22T04:24:57;95673.38;;;17.69;100.00
76374;BME280;65197;50.164;8.012;2023-06-22T04:27:22;95658.56;;;17.60;100.00
76374;BME280;65197;50.164;8.012;2023-06-22T04:29:48;95668.88;;;17.60;100.00
76374;BME280;65197;50.164;8.012;2023-06-22T04:32:15;95664.41;;;17.51;100.00
76374;BME280;65197;50.164;8.012;2023-06-22T04:34:40;95665.34;;;17.50;100.00
76374;BME280;65197;50.164;8.012;2023-06-22T04:37:05;95668.38;;;17.44;100.00
76374;BME280;65197;50.164;8.012;2023-06-22T04:39:31;95679.63;;;17.43;100.00
76374;BME280;65197;50.164;8.012;2023-06-22T04:41:56;95677.53;;;17.24;100.00
76374;BME280;65197;50.164;8.012;2023-06-22T04:44:26;95679.25;;;17.12;100.00
76374;BME280;65197;50.164;8.012;2023-06-22T04:46:56;95669.13;;;16.98;100.00
76374;BME280;65197;50.164;8.012;2023-06-22T04:49:33;95659.28;;;16.92;100.00
76374;BME280;65197;50.164;8.012;2023-06-22T04:52:02;95667.31;;;16.87;100.00
76374;BME280;65197;50.164;8.012;2023-06-22T04:54:28;95666.41;;;16.75;100.00
76374;BME280;65197;50.164;8.012;2023-06-22T04:56:54;95667.53;;;16.71;100.00
76374;BME280;65197;50.164;8.012;2023-06-22T04:59:23;95660.00;;;16.68;100.00
76374;BME280;65197;50.164;8.012;2023-06-22T05:01:54;95658.38;;;16.67;100.00
76374;BME280;65197;50.164;8.012;2023-06-22T05:04:21;95667.84;;;16.79;100.00
76374;BME280;65197;50.164;8.012;2023-06-22T05:06:46;95661.06;;;16.78;100.00
76374;BME280;65197;50.164;8.012;2023-06-22T05:09:11;95662.91;;;16.76;100.00
76374;BME280;65197;50.164;8.012;2023-06-22T05:11:37;95651.47;;;16.80;100.00
76374;BME280;65197;50.164;8.012;2023-06-22T05:14:02;95654.00;;;16.93;100.00
76374;BME280;65197;50.164;8.012;2023-06-22T05:16:28;95647.56;;;16.99;100.00
76374;BME280;65197;50.164;8.012;2023-06-22T05:18:54;95653.34;;;17.02;100.00
76374;BME280;65197;50.164;8.012;2023-06-22T05:21:24;95654.31;;;17.13;100.00
76374;BME280;65197;50.164;8.012;2023-06-22T05:23:50;95642.25;;;17.13;100.00
76374;BME280;65197;50.164;8.012;2023-06-22T05:26:16;95635.06;;;17.29;100.00
76374;BME280;65197;50.164;8.012;2023-06-22T05:28:41;95643.53;;;17.43;100.00
76374;BME280;65197;50.164;8.012;2023-06-22T05:31:06;95646.13;;;17.43;100.00
76374;BME280;65197;50.164;8.012;2023-06-22T05:33:32;95647.03;;;17.42;100.00
76374;BME280;65197;50.164;8.012;2023-06-22T05:35:57;95639.09;;;17.45;100.00
76374;BME280;65197;50.164;8.012;2023-06-22T05:38:22;95646.84;;;17.56;100.00
76374;BME280;65197;50.164;8.012;2023-06-22T05:40:48;95642.63;;;17.55;100.00
76374;BME280;65197;50.164;8.012;2023-06-22T05:43:13;95633.09;;;17.79;100.00
76374;BME280;65197;50.164;8.012;2023-06-22T05:45:39;95644.50;;;17.99;100.00
76374;BME280;65197;50.164;8.012;2023-06-22T05:48:05;95651.41;;;18.10;100.00
76374;BME280;65197;50.164;8.012;2023-06-22T05:50:30;95650.47;;;18.22;100.00
76374;BME280;65197;50.164;8.012;2023-06-22T05:52:55;95642.47;;;18.48;100.00
76374;BME280;65197;50.164;8.012;2023-06-22T05:55:21;95649.63;;;18.78;100.00
76374;BME280;65197;50.164;8.012;2023-06-22T05:57:46;95646.81;;;19.13;100.00
76374;BME280;65197;50.164;8.012;2023-06-22T06:00:12;95645.38;;;19.20;100.00
76374;BME280;65197;50.164;8.012;2023-06-22T06:02:38;95636.09;;;19.18;100.00
76374;BME280;65197;50.164;8.012;2023-06-22T06:05:09;95637.84;;;19.17;100.00
76374;BME280;65197;50.164;8.012;2023-06-22T06:07:34;95631.94;;;19.26;100.00
76374;BME280;65197;50.164;8.012;2023-06-22T06:10:00;95633.03;;;19.45;100.00
76374;BME280;65197;50.164;8.012;2023-06-22T06:12:26;95645.59;;;19.49;100.00
76374;BME280;65197;50.164;8.012;2023-06-22T06:14:51;95654.94;;;19.82;100.00
76374;BME280;65197;50.164;8.012;2023-06-22T06:17:18;95652.50;;;20.02;100.00
76374;BME280;65197;50.164;8.012;2023-06-22T06:19:43;95646.19;;;20.25;100.00
76374;BME280;65197;50.164;8.012;2023-06-22T06:22:09;95651.97;;;20.39;100.00
76374;BME280;65197;50.164;8.012;2023-06-22T06:24:34;95654.56;;;20.39;100.00
76374;BME280;65197;50.164;8.012;2023-06-22T06:26:59;95652.91;;;20.68;100.00
76374;BME280;65197;50.164;8.012;2023-06-22T06:29:25;95655.13;;;20.82;100.00
76374;BME280;65197;50.164;8.012;2023-06-22T06:31:50;95654.72;;;21.06;100.00
76374;BME280;65197;50.164;8.012;2023-06-22T06:34:16;95633.59;;;21.21;100.00
76374;BME280;65197;50.164;8.012;2023-06-22T06:36:41;95641.47;;;20.71;100.00
76374;BME280;65197;50.164;8.012;2023-06-22T06:39:07;95641.66;;;21.08;100.00
76374;BME280;65197;50.164;8.012;2023-06-22T06:41:33;95645.72;;;21.20;100.00
76374;BME280;65197;50.164;8.012;2023-06-22T06:43:59;95631.31;;;22.13;100.00
76374;BME280;65197;50.164;8.012;2023-06-22T06:46:25;95634.16;;;22.10;100.00
76374;BME280;65197;50.164;8.012;2023-06-22T06:48:51;95628.91;;;21.82;100.00
76374;BME280;65197;50.164;8.012;2023-06-22T06:51:16;95639.41;;;22.00;100.00
76374;BME280;65197;50.164;8.012;2023-06-22T06:53:41;95642.41;;;22.43;100.00
76374;BME280;65197;50.164;8.012;2023-06-22T06:56:07;95648.97;;;22.47;99.23
76374;BME280;65197;50.164;8.012;2023-06-22T06:58:34;95628.22;;;22.27;98.88
76374;BME280;65197;50.164;8.012;2023-06-22T07:00:59;95625.19;;;22.87;98.00
76374;BME280;65197;50.164;8.012;2023-06-22T07:03:24;95626.78;;;23.33;94.78
76374;BME280;65197;50.164;8.012;2023-06-22T07:05:50;95632.66;;;23.00;95.58
76374;BME280;65197;50.164;8.012;2023-06-22T07:08:15;95648.84;;;22.66;97.61
76374;BME280;65197;50.164;8.012;2023-06-22T07:10:41;95645.66;;;22.72;94.34
76374;BME280;65197;50.164;8.012;2023-06-22T07:13:06;95637.91;;;23.79;92.74
76374;BME280;65197;50.164;8.012;2023-06-22T07:15:31;95640.69;;;24.04;89.23
76374;BME280;65197;50.164;8.012;2023-06-22T07:17:57;95621.47;;;23.61;90.37
76374;BME280;65197;50.164;8.012;2023-06-22T07:20:22;95631.19;;;23.95;89.99
76374;BME280;65197;50.164;8.012;2023-06-22T07:22:48;95639.75;;;24.13;89.62
76374;BME280;65197;50.164;8.012;2023-06-22T07:25:13;95646.53;;;24.66;89.06
76374;BME280;65197;50.164;8.012;2023-06-22T07:28:03;95630.53;;;24.61;85.52
76374;BME280;65197;50.164;8.012;2023-06-22T07:30:29;95636.75;;;24.68;86.20
76374;BME280;65197;50.164;8.012;2023-06-22T07:32:55;95638.03;;;25.23;85.20
76374;BME280;65197;50.164;8.012;2023-06-22T07:35:20;95632.06;;;24.80;84.57
76374;BME280;65197;50.164;8.012;2023-06-22T07:37:46;95627.63;;;24.64;85.05
76374;BME280;65197;50.164;8.012;2023-06-22T07:40:11;95617.47;;;24.19;90.28
76374;BME280;65197;50.164;8.012;2023-06-22T07:42:37;95622.25;;;23.71;90.77
76374;BME280;65197;50.164;8.012;2023-06-22T07:45:04;95614.66;;;24.12;93.00
76374;BME280;65197;50.164;8.012;2023-06-22T07:47:29;95608.66;;;24.46;91.07
76374;BME280;65197;50.164;8.012;2023-06-22T07:49:55;95612.38;;;24.94;88.35
76374;BME280;65197;50.164;8.012;2023-06-22T07:52:23;95604.81;;;24.66;90.75
76374;BME280;65197;50.164;8.012;2023-06-22T07:54:49;95602.53;;;24.03;90.73
76374;BME280;65197;50.164;8.012;2023-06-22T07:57:15;95590.59;;;24.18;92.98
76374;BME280;65197;50.164;8.012;2023-06-22T07:59:40;95584.28;;;23.95;93.09
76374;BME280;65197;50.164;8.012;2023-06-22T08:02:05;95597.16;;;24.64;91.29
76374;BME280;65197;50.164;8.012;2023-06-22T08:04:31;95597.66;;;24.84;87.01
76374;BME280;65197;50.164;8.012;2023-06-22T08:06:59;95587.09;;;24.94;87.22
76374;BME280;65197;50.164;8.012;2023-06-22T08:09:24;95589.94;;;24.50;88.76
76374;BME280;65197;50.164;8.012;2023-06-22T08:11:49;95583.97;;;24.90;90.09
76374;BME280;65197;50.164;8.012;2023-06-22T08:14:15;95583.91;;;24.50;88.25
76374;BME280;65197;50.164;8.012;2023-06-22T08:16:41;95581.81;;;24.61;89.09
76374;BME280;65197;50.164;8.012;2023-06-22T08:19:07;95579.72;;;23.97;91.00
76374;BME280;65197;50.164;8.012;2023-06-22T08:21:32;95568.28;;;24.24;91.64
76374;BME280;65197;50.164;8.012;2023-06-22T08:23:57;95561.72;;;24.46;90.17
76374;BME280;65197;50.164;8.012;2023-06-22T08:26:23;95569.56;;;24.54;88.51
76374;BME280;65197;50.164;8.012;2023-06-22T08:28:48;95579.03;;;24.21;90.00
76374;BME280;65197;50.164;8.012;2023-06-22T08:31:14;95577.28;;;24.29;91.50
76374;BME280;65197;50.164;8.012;2023-06-22T08:33:39;95578.69;;;24.16;92.04
76374;BME280;65197;50.164;8.012;2023-06-22T08:36:05;95571.53;;;24.68;90.72
76374;BME280;65197;50.164;8.012;2023-06-22T08:38:31;95569.22;;;24.41;92.76
76374;BME280;65197;50.164;8.012;2023-06-22T08:40:57;95571.69;;;24.58;90.22
76374;BME280;65197;50.164;8.012;2023-06-22T08:43:22;95561.81;;;24.95;86.68
76374;BME280;65197;50.164;8.012;2023-06-22T08:45:47;95559.19;;;24.70;86.38
76374;BME280;65197;50.164;8.012;2023-06-22T08:48:13;95569.00;;;24.93;86.13
76374;BME280;65197;50.164;8.012;2023-06-22T08:50:39;95555.97;;;25.50;86.25
76374;BME280;65197;50.164;8.012;2023-06-22T08:53:05;95547.75;;;24.55;81.75
76374;BME280;65197;50.164;8.012;2023-06-22T08:55:31;95543.59;;;25.19;73.12
76374;BME280;65197;50.164;8.012;2023-06-22T08:57:56;95552.19;;;24.79;86.49
76374;BME280;65197;50.164;8.012;2023-06-22T09:00:22;95540.94;;;25.03;75.95
76374;BME280;65197;50.164;8.012;2023-06-22T09:02:47;95525.63;;;25.49;74.45
76374;BME280;65197;50.164;8.012;2023-06-22T09:05:13;95527.72;;;26.17;70.70
76374;BME280;65197;50.164;8.012;2023-06-22T09:07:39;95527.47;;;26.04;69.17
76374;BME280;65197;50.164;8.012;2023-06-22T09:10:05;95518.47;;;25.43;71.00
76374;BME280;65197;50.164;8.012;2023-06-22T09:12:31;95510.50;;;25.92;68.77
76374;BME280;65197;50.164;8.012;2023-06-22T09:14:58;95512.91;;;26.01;70.02
76374;BME280;65197;50.164;8.012;2023-06-22T09:17:25;95507.59;;;25.78;67.53
76374;BME280;65197;50.164;8.012;2023-06-22T09:19:50;95522.56;;;25.29;70.92
76374;BME280;65197;50.164;8.012;2023-06-22T09:22:15;95507.00;;;24.70;71.71
76374;BME280;65197;50.164;8.012;2023-06-22T09:24:41;95522.84;;;24.93;71.72
76374;BME280;65197;50.164;8.012;2023-06-22T09:27:06;95521.88;;;25.27;73.87
76374;BME280;65197;50.164;8.012;2023-06-22T09:29:31;95533.44;;;25.00;70.68
76374;BME280;65197;50.164;8.012;2023-06-22T09:32:00;95537.97;;;24.65;74.29
76374;BME280;65197;50.164;8.012;2023-06-22T09:34:26;95532.94;;;24.21;75.33
76374;BME280;65197;50.164;8.012;2023-06-22T09:36:51;95523.81;;;24.25;77.58
76374;BME280;65197;50.164;8.012;2023-06-22T09:39:18;95510.34;;;23.87;77.00
76374;BME280;65197;50.164;8.012;2023-06-22T09:41:44;95502.56;;;23.96;79.13
76374;BME280;65197;50.164;8.012;2023-06-22T09:44:09;95505.75;;;24.24;78.53
76374;BME280;65197;50.164;8.012;2023-06-22T09:46:34;95498.97;;;23.97;74.96
76374;BME280;65197;50.164;8.012;2023-06-22T09:49:00;95498.53;;;24.09;75.98
76374;BME280;65197;50.164;8.012;2023-06-22T09:51:25;95495.84;;;24.27;75.90
76374;BME280;65197;50.164;8.012;2023-06-22T09:53:51;95483.88;;;24.75;73.37
76374;BME280;65197;50.164;8.012;2023-06-22T09:56:17;95466.94;;;25.20;69.81
76374;BME280;65197;50.164;8.012;2023-06-22T09:58:43;95475.06;;;25.33;72.54
76374;BME280;65197;50.164;8.012;2023-06-22T10:01:10;95464.97;;;25.22;74.42
76374;BME280;65197;50.164;8.012;2023-06-22T10:03:36;95462.44;;;25.53;70.20
76374;BME280;65197;50.164;8.012;2023-06-22T10:06:02;95469.72;;;25.74;69.22
76374;BME280;65197;50.164;8.012;2023-06-22T10:08:28;95458.38;;;26.29;69.02
76374;BME280;65197;50.164;8.012;2023-06-22T10:10:53;95441.81;;;26.68;67.04
76374;BME280;65197;50.164;8.012;2023-06-22T10:13:18;95446.81;;;26.78;66.58
76374;BME280;65197;50.164;8.012;2023-06-22T10:15:44;95452.22;;;26.22;66.17
76374;BME280;65197;50.164;8.012;2023-06-22T10:18:15;95443.69;;;26.28;69.92
76374;BME280;65197;50.164;8.012;2023-06-22T10:20:41;95454.09;;;25.58;69.06
76374;BME280;65197;50.164;8.012;2023-06-22T10:23:06;95451.59;;;24.84;71.60
76374;BME280;65197;50.164;8.012;2023-06-22T10:25:32;95451.25;;;25.04;73.57
76374;BME280;65197;50.164;8.012;2023-06-22T10:27:57;95454.66;;;25.93;70.00
76374;BME280;65197;50.164;8.012;2023-06-22T10:30:22;95460.06;;;26.76;68.93
76374;BME280;65197;50.164;8.012;2023-06-22T10:32:48;95447.72;;;26.62;64.74
76374;BME280;65197;50.164;8.012;2023-06-22T10:35:14;95439.44;;;27.19;65.42
76374;BME280;65197;50.164;8.012;2023-06-22T10:37:44;95453.16;;;27.21;65.13
76374;BME280;65197;50.164;8.012;2023-06-22T10:40:13;95432.00;;;26.39;66.45
76374;BME280;65197;50.164;8.012;2023-06-22T10:42:40;95438.53;;;26.66;67.04
76374;BME280;65197;50.164;8.012;2023-06-22T10:45:06;95413.75;;;26.08;68.14
76374;BME280;65197;50.164;8.012;2023-06-22T10:47:32;95421.75;;;26.06;67.11
76374;BME280;65197;50.164;8.012;2023-06-22T10:49:57;95414.78;;;25.99;67.96
76374;BME280;65197;50.164;8.012;2023-06-22T10:52:22;95407.75;;;26.76;66.03
76374;BME280;65197;50.164;8.012;2023-06-22T10:54:48;95410.16;;;26.32;66.90
76374;BME280;65197;50.164;8.012;2023-06-22T10:57:13;95413.53;;;26.86;67.37
76374;BME280;65197;50.164;8.012;2023-06-22T10:59:39;95410.47;;;26.98;62.62
76374;BME280;65197;50.164;8.012;2023-06-22T11:02:04;95424.28;;;26.54;66.14
76374;BME280;65197;50.164;8.012;2023-06-22T11:04:30;95409.63;;;27.20;64.92
76374;BME280;65197;50.164;8.012;2023-06-22T11:06:55;95396.59;;;28.22;65.12
76374;BME280;65197;50.164;8.012;2023-06-22T11:09:21;95397.75;;;28.77;60.14
76374;BME280;65197;50.164;8.012;2023-06-22T11:11:47;95420.28;;;27.92;59.83
76374;BME280;65197;50.164;8.012;2023-06-22T11:14:13;95415.75;;;28.59;57.22
76374;BME280;65197;50.164;8.012;2023-06-22T11:16:39;95406.03;;;29.02;57.29
76374;BME280;65197;50.164;8.012;2023-06-22T11:19:05;95408.97;;;28.92;55.83
76374;BME280;65197;50.164;8.012;2023-06-22T11:21:31;95412.84;;;28.32;58.05
76374;BME280;65197;50.164;8.012;2023-06-22T11:23:56;95404.56;;;27.63;59.06
76374;BME280;65197;50.164;8.012;2023-06-22T11:26:22;95399.41;;;28.35;57.34
76374;BME280;65197;50.164;8.012;2023-06-22T11:28:47;95407.19;;;28.50;56.54
76374;BME280;65197;50.164;8.012;2023-06-22T11:31:13;95406.44;;;27.99;59.06
76374;BME280;65197;50.164;8.012;2023-06-22T11:33:39;95415.59;;;27.73;59.07
76374;BME280;65197;50.164;8.012;2023-06-22T11:36:04;95406.75;;;27.45;60.50
76374;BME280;65197;50.164;8.012;2023-06-22T11:38:30;95407.56;;;27.45;59.89
76374;BME280;65197;50.164;8.012;2023-06-22T11:40:57;95394.03;;;28.07;60.58
76374;BME280;65197;50.164;8.012;2023-06-22T11:43:22;95390.56;;;28.64;56.69
76374;BME280;65197;50.164;8.012;2023-06-22T11:45:47;95379.69;;;28.89;55.11
76374;BME280;65197;50.164;8.012;2023-06-22T11:48:13;95386.22;;;27.92;56.76
76374;BME280;65197;50.164;8.012;2023-06-22T11:50:38;95378.31;;;27.41;58.94
76374;BME280;65197;50.164;8.012;2023-06-22T11:53:04;95395.84;;;27.41;60.15
76374;BME280;65197;50.164;8.012;2023-06-22T11:55:29;95398.72;;;27.76;58.46
76374;BME280;65197;50.164;8.012;2023-06-22T11:57:56;95392.25;;;28.29;57.80
76374;BME280;65197;50.164;8.012;2023-06-22T12:00:23;95372.84;;;28.95;55.66
76374;BME280;65197;50.164;8.012;2023-06-22T12:02:50;95372.88;;;29.64;52.43
76374;BME280;65197;50.164;8.012;2023-06-22T12:05:18;95372.50;;;29.32;52.39
76374;BME280;65197;50.164;8.012;2023-06-22T12:07:44;95356.69;;;29.67;49.56
76374;BME280;65197;50.164;8.012;2023-06-22T12:10:09;95360.38;;;29.73;47.22
76374;BME280;65197;50.164;8.012;2023-06-22T12:12:35;95370.69;;;30.62;47.27
76374;BME280;65197;50.164;8.012;2023-06-22T12:15:00;95360.53;;;30.46;44.21
76374;BME280;65197;50.164;8.012;2023-06-22T12:17:28;95360.00;;;29.82;48.65
76374;BME280;65197;50.164;8.012;2023-06-22T12:19:54;95352.59;;;29.16;50.30
76374;BME280;65197;50.164;8.012;2023-06-22T12:22:19;95353.56;;;29.09;49.43
76374;BME280;65197;50.164;8.012;2023-06-22T12:24:45;95350.72;;;29.04;48.57
76374;BME280;65197;50.164;8.012;2023-06-22T12:27:10;95351.28;;;28.99;49.54
76374;BME280;65197;50.164;8.012;2023-06-22T12:29:35;95347.63;;;28.72;49.35
76374;BME280;65197;50.164;8.012;2023-06-22T12:32:01;95340.19;;;28.76;49.95
76374;BME280;65197;50.164;8.012;2023-06-22T12:34:26;95330.16;;;29.14;49.42
76374;BME280;65197;50.164;8.012;2023-06-22T12:36:51;95323.22;;;29.00;49.99
76374;BME280;65197;50.164;8.012;2023-06-22T12:39:19;95326.59;;;28.93;50.19
76374;BME280;65197;50.164;8.012;2023-06-22T12:41:45;95331.44;;;28.68;49.04
76374;BME280;65197;50.164;8.012;2023-06-22T12:44:10;95326.53;;;28.59;50.06
76374;BME280;65197;50.164;8.012;2023-06-22T12:46:36;95317.75;;;28.73;49.28
76374;BME280;65197;50.164;8.012;2023-06-22T12:49:06;95319.09;;;28.90;50.08
76374;BME280;65197;50.164;8.012;2023-06-22T12:51:31;95319.59;;;29.01;50.71